createdAt,value
2023-05-09T00:00:00.580Z,6.60
2023-05-09T00:02:29.588Z,8.05
2023-05-09T00:04:57.046Z,7.00
2023-05-09T00:07:24.155Z,6.15
2023-05-09T00:09:51.215Z,6.95
2023-05-09T00:12:18.321Z,6.32
2023-05-09T00:14:45.517Z,7.30
2023-05-09T00:17:15.621Z,9.23
2023-05-09T00:19:43.586Z,9.52
2023-05-09T00:22:12.833Z,7.38
2023-05-09T00:24:39.925Z,6.97
2023-05-09T00:27:07.035Z,8.73
2023-05-09T00:29:34.175Z,7.50
2023-05-09T00:32:03.574Z,9.70
2023-05-09T00:34:30.634Z,9.32
2023-05-09T00:36:57.730Z,8.55
2023-05-09T00:39:27.569Z,7.70
2023-05-09T00:41:58.950Z,7.13
2023-05-09T00:44:26.100Z,8.27
2023-05-09T00:46:53.203Z,8.05
2023-05-09T00:49:20.252Z,8.13
2023-05-09T00:51:48.291Z,7.15
2023-05-09T00:54:15.426Z,7.75
2023-05-09T00:56:44.742Z,8.80
2023-05-09T00:59:12.044Z,7.03
2023-05-09T01:01:39.200Z,8.10
2023-05-09T01:04:06.285Z,7.75
2023-05-09T01:06:39.544Z,8.40
2023-05-09T01:09:29.714Z,8.25
2023-05-09T01:12:06.948Z,7.78
2023-05-09T01:14:52.838Z,8.48
2023-05-09T01:17:24.430Z,7.57
2023-05-09T01:20:11.083Z,8.43
2023-05-09T01:22:39.895Z,9.30
2023-05-09T01:25:07.333Z,9.10
2023-05-09T01:27:36.888Z,8.70
2023-05-09T01:30:07.024Z,9.38
2023-05-09T01:32:38.776Z,8.18
2023-05-09T01:35:08.847Z,9.85
2023-05-09T01:37:37.077Z,8.88
2023-05-09T01:40:07.537Z,9.27
2023-05-09T01:42:39.209Z,9.52
2023-05-09T01:45:10.411Z,8.85
2023-05-09T01:47:38.861Z,8.75
2023-05-09T01:50:06.646Z,8.45
2023-05-09T01:52:34.060Z,10.02
2023-05-09T01:55:01.728Z,9.52
2023-05-09T01:57:33.838Z,9.20
2023-05-09T02:00:03.770Z,9.40
2023-05-09T02:02:33.226Z,8.95
2023-05-09T02:05:01.465Z,9.57
2023-05-09T02:07:30.093Z,10.77
2023-05-09T02:09:58.800Z,9.35
2023-05-09T02:12:26.241Z,8.45
2023-05-09T02:14:53.352Z,10.25
2023-05-09T02:17:21.530Z,10.55
2023-05-09T02:19:48.740Z,11.00
2023-05-09T02:22:16.012Z,10.60
2023-05-09T02:24:46.609Z,13.40
2023-05-09T02:27:14.413Z,10.60
2023-05-09T02:29:44.977Z,10.55
2023-05-09T02:32:27.612Z,11.75
2023-05-09T02:34:55.525Z,13.25
2023-05-09T02:37:22.933Z,11.98
2023-05-09T02:39:50.008Z,10.70
2023-05-09T02:42:20.237Z,10.60
2023-05-09T02:44:49.568Z,10.88
2023-05-09T02:47:19.132Z,12.63
2023-05-09T02:49:46.403Z,9.20
2023-05-09T02:52:13.539Z,11.70
2023-05-09T02:54:40.628Z,11.52
2023-05-09T02:57:07.750Z,11.02
2023-05-09T02:59:37.333Z,11.40
2023-05-09T03:02:05.048Z,10.48
2023-05-09T03:04:32.131Z,13.93
2023-05-09T03:06:59.243Z,11.50
2023-05-09T03:09:26.345Z,12.07
2023-05-09T03:11:53.419Z,9.32
2023-05-09T03:14:20.554Z,10.82
2023-05-09T03:16:49.896Z,11.35
2023-05-09T03:19:19.199Z,10.00
2023-05-09T03:21:48.546Z,10.32
2023-05-09T03:24:17.937Z,11.07
2023-05-09T03:26:47.294Z,10.48
2023-05-09T03:29:14.387Z,11.80
2023-05-09T03:31:41.503Z,11.90
2023-05-09T03:34:14.827Z,13.43
2023-05-09T03:36:43.660Z,11.23
2023-05-09T03:39:13.244Z,12.13
2023-05-09T03:41:40.393Z,11.02
2023-05-09T03:44:07.589Z,13.07
2023-05-09T03:46:34.687Z,11.57
2023-05-09T03:49:01.951Z,11.90
2023-05-09T03:51:29.020Z,13.50
2023-05-09T03:53:56.223Z,11.73
2023-05-09T03:56:23.302Z,14.35
2023-05-09T03:58:50.414Z,9.43
2023-05-09T04:01:17.682Z,11.48
2023-05-09T04:03:44.863Z,12.82
2023-05-09T04:06:13.377Z,11.40
2023-05-09T04:08:40.596Z,10.30
2023-05-09T04:11:07.677Z,12.02
2023-05-09T04:13:34.829Z,10.50
2023-05-09T04:16:01.921Z,11.40
2023-05-09T04:18:31.367Z,10.40
2023-05-09T04:20:58.467Z,13.68
2023-05-09T04:23:25.639Z,11.80
2023-05-09T04:25:55.500Z,11.98
2023-05-09T04:28:22.589Z,12.32
2023-05-09T04:30:49.733Z,11.02
2023-05-09T04:33:17.063Z,10.48
2023-05-09T04:35:48.672Z,12.68
2023-05-09T04:38:16.688Z,10.20
2023-05-09T04:40:43.770Z,10.23
2023-05-09T04:43:13.337Z,11.07
2023-05-09T04:45:40.611Z,16.33
2023-05-09T04:48:07.848Z,11.05
2023-05-09T04:50:35.059Z,11.10
2023-05-09T04:53:02.131Z,11.48
2023-05-09T04:55:29.205Z,12.35
2023-05-09T04:57:56.284Z,12.13
2023-05-09T05:00:25.959Z,10.15
2023-05-09T05:05:25.329Z,10.27
2023-05-09T05:07:55.145Z,11.68
2023-05-09T05:10:24.744Z,10.85
2023-05-09T05:12:51.861Z,11.55
2023-05-09T05:15:19.566Z,10.93
2023-05-09T05:17:46.798Z,12.00
2023-05-09T05:20:14.124Z,11.02
2023-05-09T05:22:41.296Z,11.88
2023-05-09T05:25:08.832Z,12.07
2023-05-09T05:27:36.053Z,12.75
2023-05-09T05:30:05.503Z,11.25
2023-05-09T05:32:32.594Z,10.70
2023-05-09T05:34:59.758Z,10.95
2023-05-09T05:37:26.880Z,11.55
2023-05-09T05:39:56.163Z,17.75
2023-05-09T05:42:23.264Z,12.32
2023-05-09T05:44:52.553Z,12.15
2023-05-09T05:47:19.645Z,11.30
2023-05-09T05:49:47.230Z,13.68
2023-05-09T05:52:14.663Z,13.25
2023-05-09T05:54:41.781Z,17.55
2023-05-09T05:57:11.352Z,14.15
2023-05-09T05:59:38.421Z,10.82
2023-05-09T06:02:05.610Z,10.18
2023-05-09T06:04:32.970Z,12.32
2023-05-09T06:07:00.054Z,10.73
2023-05-09T06:09:27.346Z,11.85
2023-05-09T06:11:54.624Z,11.25
2023-05-09T06:14:21.942Z,13.93
2023-05-09T06:16:49.308Z,11.43
2023-05-09T06:19:16.600Z,11.07
2023-05-09T06:21:43.756Z,11.63
2023-05-09T06:24:16.988Z,11.38
2023-05-09T06:26:57.437Z,11.57
2023-05-09T06:29:24.505Z,10.07
2023-05-09T06:31:54.132Z,15.98
2023-05-09T06:36:48.336Z,12.68
2023-05-09T06:39:15.439Z,11.73
2023-05-09T06:41:42.574Z,11.25
2023-05-09T06:44:09.628Z,9.63
2023-05-09T06:46:36.824Z,12.48
2023-05-09T06:49:03.970Z,8.90
2023-05-09T06:51:31.062Z,8.68
2023-05-09T06:53:58.215Z,18.45
2023-05-09T06:56:26.042Z,9.40
2023-05-09T06:58:55.644Z,8.82
2023-05-09T07:03:52.286Z,10.05
2023-05-09T07:06:19.446Z,10.13
2023-05-09T07:08:48.724Z,9.32
2023-05-09T07:11:18.469Z,6.72
2023-05-09T07:13:45.650Z,11.95
2023-05-09T07:16:16.146Z,10.05
2023-05-09T07:18:45.358Z,10.18
2023-05-09T07:21:12.947Z,9.00
2023-05-09T07:23:40.099Z,8.65
2023-05-09T07:26:07.161Z,7.55
2023-05-09T07:28:34.237Z,8.00
2023-05-09T07:31:01.355Z,8.50
2023-05-09T07:33:28.463Z,9.98
2023-05-09T07:35:55.587Z,7.97
2023-05-09T07:38:27.122Z,7.85
2023-05-09T07:40:54.283Z,6.70
2023-05-09T07:43:21.403Z,7.72
2023-05-09T07:45:51.006Z,6.13
2023-05-09T07:48:18.137Z,6.55
2023-05-09T07:50:45.236Z,6.25
2023-05-09T07:53:12.391Z,7.40
2023-05-09T07:55:39.536Z,4.65
2023-05-09T07:58:06.615Z,7.10
2023-05-09T08:00:33.711Z,6.50
2023-05-09T08:03:01.198Z,9.32
2023-05-09T08:05:28.267Z,5.95
2023-05-09T08:07:57.826Z,7.50
2023-05-09T08:12:56.518Z,5.13
2023-05-09T08:15:23.815Z,4.30
2023-05-09T08:17:51.166Z,4.70
2023-05-09T08:20:18.350Z,6.25
2023-05-09T08:22:45.499Z,4.60
2023-05-09T08:25:14.534Z,5.35
2023-05-09T08:27:44.554Z,4.03
2023-05-09T08:30:14.345Z,5.28
2023-05-09T08:32:41.784Z,3.13
2023-05-09T08:35:09.138Z,6.13
2023-05-09T08:37:39.023Z,5.30
2023-05-09T08:40:10.086Z,5.20
2023-05-09T08:42:38.325Z,4.00
2023-05-09T08:45:12.078Z,4.78
2023-05-09T08:47:39.999Z,7.10
2023-05-09T08:50:07.846Z,5.22
2023-05-09T08:52:37.228Z,4.32
2023-05-09T08:55:07.474Z,4.47
2023-05-09T08:57:37.380Z,3.03
2023-05-09T09:00:11.302Z,3.50
2023-05-09T09:02:41.632Z,5.78
2023-05-09T09:05:19.582Z,4.10
2023-05-09T09:07:51.550Z,3.90
2023-05-09T09:10:21.412Z,2.65
2023-05-09T09:12:51.511Z,2.28
2023-05-09T09:15:20.543Z,2.30
2023-05-09T09:17:49.273Z,3.92
2023-05-09T09:20:17.101Z,5.20
2023-05-09T09:22:44.678Z,3.33
2023-05-09T09:25:11.831Z,4.38
2023-05-09T09:27:41.887Z,2.50
2023-05-09T09:30:12.662Z,5.40
2023-05-09T09:32:40.282Z,2.42
2023-05-09T09:35:08.190Z,4.30
2023-05-09T09:37:36.334Z,4.93
2023-05-09T09:40:05.072Z,4.32
2023-05-09T09:42:42.858Z,2.50
2023-05-09T09:45:13.466Z,4.25
2023-05-09T09:47:42.664Z,7.55
2023-05-09T09:50:14.402Z,4.20
2023-05-09T09:52:52.849Z,3.17
2023-05-09T09:55:20.689Z,3.13
2023-05-09T09:57:48.307Z,3.47
2023-05-09T10:00:19.428Z,3.63
2023-05-09T10:02:59.507Z,2.42
2023-05-09T10:05:31.252Z,3.15
2023-05-09T10:08:02.482Z,6.85
2023-05-09T10:10:30.229Z,4.10
2023-05-09T10:12:59.305Z,4.82
2023-05-09T10:15:35.657Z,2.58
2023-05-09T10:18:14.556Z,3.25
2023-05-09T10:20:43.525Z,9.35
2023-05-09T10:23:12.020Z,3.20
2023-05-09T10:25:44.512Z,2.75
2023-05-09T10:28:15.179Z,3.20
2023-05-09T10:31:09.664Z,4.13
2023-05-09T10:33:48.107Z,3.00
2023-05-09T10:36:23.960Z,4.38
2023-05-09T10:38:56.341Z,2.92
2023-05-09T10:41:23.966Z,4.20
2023-05-09T10:43:51.121Z,7.47
2023-05-09T10:46:23.276Z,9.75
2023-05-09T10:48:52.628Z,2.30
2023-05-09T10:51:19.415Z,2.50
2023-05-09T10:53:48.730Z,3.38
2023-05-09T10:56:35.555Z,2.20
2023-05-09T10:59:05.081Z,2.28
2023-05-09T11:04:12.905Z,1.95
2023-05-09T11:06:52.496Z,1.88
2023-05-09T11:09:38.251Z,4.30
2023-05-09T11:12:05.062Z,1.60
2023-05-09T11:14:35.683Z,2.15
2023-05-09T11:17:04.361Z,3.38
2023-05-09T11:19:58.889Z,1.70
2023-05-09T11:22:32.248Z,5.85
2023-05-09T11:25:10.191Z,2.38
2023-05-09T11:27:44.122Z,1.88
2023-05-09T11:30:14.555Z,2.08
2023-05-09T11:32:52.606Z,2.15
2023-05-09T11:35:21.518Z,4.57
2023-05-09T11:38:04.331Z,3.35
2023-05-09T11:40:32.388Z,6.72
2023-05-09T11:43:00.578Z,2.58
2023-05-09T11:45:30.383Z,3.05
2023-05-09T11:48:01.014Z,4.82
2023-05-09T11:50:28.330Z,2.80
2023-05-09T11:52:55.051Z,2.95
2023-05-09T11:55:23.026Z,3.33
2023-05-09T11:57:53.450Z,4.35
2023-05-09T12:00:23.810Z,3.17
2023-05-09T12:02:51.801Z,1.88
2023-05-09T12:05:20.311Z,4.00
2023-05-09T12:07:47.827Z,1.58
2023-05-09T12:10:22.857Z,1.75
2023-05-09T12:12:50.816Z,2.78
2023-05-09T12:15:18.978Z,1.40
2023-05-09T12:17:47.694Z,2.27
2023-05-09T12:20:16.909Z,1.80
2023-05-09T12:22:44.454Z,5.13
2023-05-09T12:25:12.476Z,4.35
2023-05-09T12:27:40.262Z,2.97
2023-05-09T12:30:10.098Z,2.58
2023-05-09T12:32:39.497Z,3.38
2023-05-09T12:35:10.922Z,2.92
2023-05-09T12:37:39.155Z,2.90
2023-05-09T12:40:12.591Z,3.63
2023-05-09T12:42:40.158Z,2.75
2023-05-09T12:45:10.605Z,3.72
2023-05-09T12:47:46.774Z,2.80
2023-05-09T12:50:14.226Z,2.30
2023-05-09T12:52:54.575Z,2.47
2023-05-09T12:55:31.697Z,2.38
2023-05-09T12:58:00.184Z,3.03
2023-05-09T13:00:27.368Z,2.58
2023-05-09T13:02:55.010Z,3.47
2023-05-09T13:05:23.081Z,3.25
2023-05-09T13:07:52.310Z,2.53
2023-05-09T13:10:21.419Z,2.08
2023-05-09T13:12:49.312Z,6.03
2023-05-09T13:15:17.352Z,2.38
2023-05-09T13:17:44.876Z,4.07
2023-05-09T13:20:12.195Z,2.40
2023-05-09T13:22:39.405Z,1.90
2023-05-09T13:25:07.079Z,1.73
2023-05-09T13:27:34.662Z,2.10
2023-05-09T13:30:01.930Z,1.50
2023-05-09T13:32:29.177Z,1.33
2023-05-09T13:34:58.542Z,1.50
2023-05-09T13:37:26.474Z,1.50
2023-05-09T13:39:54.595Z,2.55
2023-05-09T13:42:24.234Z,2.45
2023-05-09T13:44:53.606Z,1.40
2023-05-09T13:49:48.276Z,2.25
2023-05-09T13:52:16.406Z,1.77
2023-05-09T13:54:43.731Z,2.28
2023-05-09T13:57:11.138Z,2.10
2023-05-09T13:59:38.297Z,3.40
2023-05-09T14:02:05.624Z,1.55
2023-05-09T14:04:32.847Z,2.15
2023-05-09T14:07:00.629Z,2.38
2023-05-09T14:09:29.505Z,2.30
2023-05-09T14:11:57.122Z,2.70
2023-05-09T14:14:25.110Z,4.25
2023-05-09T14:16:52.695Z,3.90
2023-05-09T14:19:19.839Z,2.60
2023-05-09T14:21:47.288Z,2.53
2023-05-09T14:24:16.705Z,2.40
2023-05-09T14:29:11.208Z,2.20
2023-05-09T14:31:38.440Z,3.53
2023-05-09T14:34:06.184Z,2.50
2023-05-09T14:36:33.337Z,3.63
2023-05-09T14:39:00.419Z,3.13
2023-05-09T14:41:27.585Z,2.38
2023-05-09T14:43:54.720Z,2.78
2023-05-09T14:46:22.814Z,3.45
2023-05-09T14:48:52.799Z,5.38
2023-05-09T14:51:22.140Z,4.18
2023-05-09T14:53:49.213Z,4.10
2023-05-09T14:56:16.429Z,5.43
2023-05-09T14:58:43.518Z,2.72
2023-05-09T15:01:10.653Z,9.25
2023-05-09T15:03:39.216Z,2.63
2023-05-09T15:06:06.453Z,3.20
2023-05-09T15:08:36.522Z,5.93
2023-05-09T15:11:03.677Z,5.90
2023-05-09T15:13:31.279Z,5.97
2023-05-09T15:16:00.851Z,8.85
2023-05-09T15:20:56.395Z,9.13
2023-05-09T15:23:28.513Z,7.78
2023-05-09T15:25:55.708Z,10.25
2023-05-09T15:28:22.819Z,8.73
2023-05-09T15:30:49.966Z,5.45
2023-05-09T15:33:17.590Z,3.97
2023-05-09T15:35:45.126Z,4.18
2023-05-09T15:38:13.298Z,4.25
2023-05-09T15:40:41.380Z,2.15
2023-05-09T15:43:10.825Z,3.92
2023-05-09T15:45:38.825Z,2.80
2023-05-09T15:48:06.093Z,2.65
2023-05-09T15:50:33.344Z,6.30
2023-05-09T15:53:00.444Z,2.55
2023-05-09T15:55:28.768Z,3.67
2023-05-09T15:57:56.013Z,2.80
2023-05-09T16:00:23.440Z,3.58
2023-05-09T16:02:51.064Z,6.68
2023-05-09T16:05:18.814Z,2.45
2023-05-09T16:07:46.542Z,4.50
2023-05-09T16:10:14.496Z,3.30
2023-05-09T16:12:41.819Z,4.53
2023-05-09T16:15:09.053Z,3.97
2023-05-09T16:17:36.248Z,5.00
2023-05-09T16:20:03.827Z,5.70
2023-05-09T16:22:31.329Z,4.35
2023-05-09T16:24:58.415Z,5.53
2023-05-09T16:27:25.693Z,7.68
2023-05-09T16:29:52.873Z,4.70
2023-05-09T16:32:20.004Z,5.13
2023-05-09T16:34:47.407Z,2.67
2023-05-09T16:37:16.187Z,3.03
2023-05-09T16:39:43.289Z,5.03
2023-05-09T16:42:10.404Z,4.78
2023-05-09T16:44:37.773Z,4.63
2023-05-09T16:47:04.940Z,3.88
2023-05-09T16:49:32.032Z,4.85
2023-05-09T16:51:59.476Z,4.32
2023-05-09T16:54:28.828Z,4.68
2023-05-09T16:56:55.944Z,3.55
2023-05-09T16:59:23.045Z,6.13
2023-05-09T17:01:50.502Z,3.38
2023-05-09T17:04:19.908Z,3.55
2023-05-09T17:06:47.163Z,3.75
2023-05-09T17:09:14.278Z,6.07
2023-05-09T17:11:41.745Z,3.42
2023-05-09T17:14:08.898Z,4.30
2023-05-09T17:16:38.412Z,7.38
2023-05-09T17:21:34.897Z,5.97
2023-05-09T17:24:02.150Z,3.67
2023-05-09T17:26:29.677Z,3.20
2023-05-09T17:28:57.197Z,4.57
2023-05-09T17:31:26.668Z,3.40
2023-05-09T17:33:53.831Z,3.63
2023-05-09T17:36:21.008Z,3.03
2023-05-09T17:38:48.120Z,4.20
2023-05-09T17:41:15.248Z,4.95
2023-05-09T17:43:42.341Z,2.63
2023-05-09T17:46:09.544Z,3.78
2023-05-09T17:48:36.908Z,2.65
2023-05-09T17:51:04.124Z,4.38
2023-05-09T17:53:31.281Z,4.88
2023-05-09T17:56:01.127Z,5.70
2023-05-09T17:58:28.327Z,4.75
2023-05-09T18:00:55.908Z,5.10
2023-05-09T18:03:23.102Z,4.80
2023-05-09T18:05:50.575Z,3.65
2023-05-09T18:08:17.919Z,3.97
2023-05-09T18:10:47.536Z,4.15
2023-05-09T18:15:41.923Z,3.05
2023-05-09T18:18:09.904Z,3.20
2023-05-09T18:20:40.783Z,5.07
2023-05-09T18:23:08.423Z,6.40
2023-05-09T18:25:35.637Z,5.65
2023-05-09T18:28:02.736Z,4.13
2023-05-09T18:30:29.926Z,5.18
2023-05-09T18:33:00.256Z,3.85
2023-05-09T18:35:27.582Z,7.78
2023-05-09T18:37:57.324Z,5.85
2023-05-09T18:40:27.136Z,6.57
2023-05-09T18:42:54.325Z,5.80
2023-05-09T18:45:21.560Z,5.25
2023-05-09T18:47:48.976Z,5.15
2023-05-09T18:50:18.574Z,4.88
2023-05-09T18:52:45.965Z,5.13
2023-05-09T18:55:15.834Z,3.50
2023-05-09T18:57:42.979Z,3.55
2023-05-09T19:00:10.360Z,5.60
2023-05-09T19:02:38.270Z,4.07
2023-05-09T19:05:10.837Z,3.85
2023-05-09T19:07:38.743Z,7.82
2023-05-09T19:10:08.451Z,5.78
2023-05-09T19:15:07.398Z,5.47
2023-05-09T19:20:02.459Z,4.70
2023-05-09T19:22:29.297Z,6.32
2023-05-09T19:24:59.257Z,6.18
2023-05-09T19:27:26.306Z,4.85
2023-05-09T19:29:53.305Z,4.10
2023-05-09T19:32:20.241Z,4.30
2023-05-09T19:34:47.340Z,4.60
2023-05-09T19:37:14.129Z,3.92
2023-05-09T19:39:43.522Z,3.10
2023-05-09T19:42:14.343Z,3.30
2023-05-09T19:44:41.552Z,2.85
2023-05-09T19:47:09.084Z,2.67
2023-05-09T19:49:36.249Z,2.05
2023-05-09T19:52:03.460Z,3.17
2023-05-09T19:54:31.968Z,1.50
2023-05-09T19:56:59.097Z,1.83
2023-05-09T19:59:26.854Z,5.22
2023-05-09T20:01:54.075Z,2.65
2023-05-09T20:04:24.919Z,2.00
2023-05-09T20:06:52.065Z,2.28
2023-05-09T20:09:21.040Z,2.20
2023-05-09T20:11:48.552Z,1.23
2023-05-09T20:14:18.505Z,4.60
2023-05-09T20:16:48.094Z,1.23
2023-05-09T20:19:15.657Z,1.00
2023-05-09T20:21:42.857Z,4.95
2023-05-09T20:24:11.691Z,4.85
2023-05-09T20:26:39.258Z,1.10
2023-05-09T20:29:06.439Z,3.55
2023-05-09T20:31:35.133Z,1.13
2023-05-09T20:34:02.274Z,0.90
2023-05-09T20:36:29.602Z,1.70
2023-05-09T20:38:57.476Z,3.90
2023-05-09T20:41:24.700Z,0.88
2023-05-09T20:43:51.955Z,1.38
2023-05-09T20:46:19.162Z,1.77
2023-05-09T20:48:46.469Z,3.90
2023-05-09T20:51:13.557Z,4.10
2023-05-09T20:53:40.683Z,2.95
2023-05-09T20:56:07.815Z,0.95
2023-05-09T20:58:37.364Z,0.80
2023-05-09T21:01:04.232Z,2.30
2023-05-09T21:03:31.409Z,1.38
2023-05-09T21:06:00.770Z,2.03
2023-05-09T21:08:27.892Z,2.63
2023-05-09T21:10:54.994Z,3.05
2023-05-09T21:13:22.191Z,0.77
2023-05-09T21:15:52.637Z,2.97
2023-05-09T21:18:21.493Z,0.40
2023-05-09T21:20:48.578Z,2.60
2023-05-09T21:23:15.749Z,5.72
2023-05-09T21:25:43.069Z,0.47
2023-05-09T21:28:10.317Z,2.20
2023-05-09T21:30:37.386Z,3.58
2023-05-09T21:33:06.997Z,1.60
2023-05-09T21:35:34.156Z,0.75
2023-05-09T21:38:03.711Z,0.65
2023-05-09T21:40:30.854Z,0.60
2023-05-09T21:42:57.984Z,0.63
2023-05-09T21:45:25.053Z,2.97
2023-05-09T21:47:52.279Z,5.32
2023-05-09T21:50:19.554Z,0.40
2023-05-09T21:52:46.787Z,1.85
2023-05-09T21:55:13.986Z,1.50
2023-05-09T21:57:41.054Z,0.50
2023-05-09T22:00:14.256Z,0.60
2023-05-09T22:02:43.009Z,2.17
2023-05-09T22:05:12.788Z,1.08
2023-05-09T22:07:42.363Z,0.50
2023-05-09T22:10:09.690Z,0.50
2023-05-09T22:12:36.801Z,0.70
2023-05-09T22:15:04.019Z,0.85
2023-05-09T22:17:31.129Z,1.30
2023-05-09T22:19:58.238Z,2.30
2023-05-09T22:22:26.856Z,0.70
2023-05-09T22:24:54.134Z,1.35
2023-05-09T22:27:21.278Z,0.90
2023-05-09T22:29:50.984Z,4.05
2023-05-09T22:34:47.784Z,2.60
2023-05-09T22:39:41.953Z,0.82
2023-05-09T22:42:11.206Z,0.85
2023-05-09T22:44:39.363Z,1.08
2023-05-09T22:47:09.806Z,1.75
2023-05-09T22:49:37.391Z,3.92
2023-05-09T22:52:04.706Z,1.55
2023-05-09T22:54:31.866Z,1.98
2023-05-09T22:56:58.930Z,0.85
2023-05-09T22:59:26.508Z,2.63
2023-05-09T23:01:53.679Z,0.95
2023-05-09T23:04:20.801Z,2.65
2023-05-09T23:06:47.942Z,0.35
2023-05-09T23:09:15.077Z,1.38
2023-05-09T23:11:44.634Z,5.38
2023-05-09T23:14:11.737Z,4.05
2023-05-09T23:16:38.817Z,0.75
2023-05-09T23:19:06.215Z,0.70
2023-05-09T23:21:33.756Z,0.70
2023-05-09T23:24:00.895Z,3.10
2023-05-09T23:26:27.996Z,0.82
2023-05-09T23:28:57.367Z,0.55
2023-05-09T23:31:26.975Z,0.50
2023-05-09T23:33:54.044Z,0.57
2023-05-09T23:36:21.363Z,2.45
2023-05-09T23:38:48.557Z,0.60
2023-05-09T23:41:15.653Z,1.42
2023-05-09T23:43:42.741Z,0.90
2023-05-09T23:46:09.860Z,2.08
2023-05-09T23:48:36.989Z,0.32
2023-05-09T23:51:04.130Z,0.50
2023-05-09T23:53:34.900Z,0.63
2023-05-09T23:56:02.798Z,0.75
2023-05-09T23:58:29.902Z,0.40
